createdAt,value
2017-01-25T00:00:40.599Z,19.84
2017-01-25T00:01:50.907Z,19.65
2017-01-25T00:03:01.477Z,19.65
2017-01-25T00:04:11.935Z,19.84
2017-01-25T00:05:22.634Z,19.55
2017-01-25T00:06:32.936Z,19.65
2017-01-25T00:07:43.270Z,19.74
2017-01-25T00:08:54.288Z,19.74
2017-01-25T00:10:04.995Z,19.65
2017-01-25T00:11:15.704Z,20.03
2017-01-25T00:12:26.014Z,20.12
2017-01-25T00:13:36.726Z,20.03
2017-01-25T00:14:47.681Z,20.12
2017-01-25T00:15:57.992Z,20.03
2017-01-25T00:17:08.698Z,20.03
2017-01-25T00:18:19.419Z,19.93
2017-01-25T00:19:29.733Z,19.84
2017-01-25T00:20:40.702Z,19.74
2017-01-25T00:21:51.019Z,19.65
2017-01-25T00:23:01.329Z,19.74
2017-01-25T00:24:12.027Z,19.74
2017-01-25T00:25:22.733Z,19.84
2017-01-25T00:26:33.720Z,19.84
2017-01-25T00:27:44.032Z,20.03
2017-01-25T00:28:54.756Z,19.84
2017-01-25T00:30:05.067Z,19.74
2017-01-25T00:31:15.396Z,19.74
2017-01-25T00:32:25.950Z,19.65
2017-01-25T00:33:36.263Z,19.84
2017-01-25T00:34:46.590Z,19.84
2017-01-25T00:35:56.907Z,19.84
2017-01-25T00:37:07.217Z,19.55
2017-01-25T00:38:17.395Z,19.55
2017-01-25T00:39:28.134Z,19.74
2017-01-25T00:40:38.442Z,19.74
2017-01-25T00:41:48.361Z,19.74
2017-01-25T00:42:58.279Z,19.74
2017-01-25T00:44:08.877Z,19.74
2017-01-25T00:45:18.791Z,19.74
2017-01-25T00:46:29.111Z,19.93
2017-01-25T00:47:39.422Z,19.84
2017-01-25T00:48:49.731Z,19.74
2017-01-25T00:50:00.739Z,19.74
2017-01-25T00:51:10.660Z,19.84
2017-01-25T00:52:21.360Z,19.93
2017-01-25T00:53:31.313Z,19.45
2017-01-25T00:54:41.618Z,19.74
2017-01-25T00:55:52.586Z,19.36
2017-01-25T00:57:03.300Z,19.45
2017-01-25T00:58:14.045Z,19.74
2017-01-25T00:59:24.758Z,19.84
2017-01-25T01:00:35.070Z,19.93
2017-01-25T01:01:46.016Z,19.84
2017-01-25T01:02:56.714Z,19.55
2017-01-25T01:04:07.427Z,19.74
2017-01-25T01:05:18.183Z,19.55
2017-01-25T01:06:28.886Z,19.84
2017-01-25T01:07:39.834Z,19.55
2017-01-25T01:08:50.136Z,19.74
2017-01-25T01:10:00.452Z,19.45
2017-01-25T01:11:10.369Z,19.45
2017-01-25T01:12:20.692Z,19.74
2017-01-25T01:13:31.259Z,19.74
2017-01-25T01:14:40.778Z,19.55
2017-01-25T01:15:51.492Z,19.74
2017-01-25T01:17:01.861Z,19.74
2017-01-25T01:18:12.570Z,19.84
2017-01-25T01:19:23.164Z,19.74
2017-01-25T01:20:33.498Z,19.74
2017-01-25T01:21:44.206Z,19.84
2017-01-25T01:22:54.512Z,19.65
2017-01-25T01:24:04.430Z,19.55
2017-01-25T01:25:14.989Z,19.74
2017-01-25T01:26:25.700Z,19.93
2017-01-25T01:27:36.400Z,19.84
2017-01-25T01:28:46.318Z,19.65
2017-01-25T01:29:56.229Z,19.74
2017-01-25T01:31:06.394Z,19.74
2017-01-25T01:32:16.331Z,19.74
2017-01-25T01:33:26.250Z,19.74
2017-01-25T01:34:36.566Z,19.55
2017-01-25T01:35:46.871Z,19.36
2017-01-25T01:36:56.634Z,19.84
2017-01-25T01:38:07.349Z,19.74
2017-01-25T01:39:17.258Z,19.93
2017-01-25T01:40:28.140Z,19.74
2017-01-25T01:41:38.845Z,19.93
2017-01-25T01:42:49.063Z,19.84
2017-01-25T01:43:58.587Z,19.74
2017-01-25T01:45:09.327Z,19.65
2017-01-25T01:46:19.274Z,19.45
2017-01-25T01:47:29.971Z,19.84
2017-01-25T01:48:40.522Z,19.55
2017-01-25T01:49:50.833Z,19.74
2017-01-25T01:51:01.713Z,19.84
2017-01-25T01:52:12.065Z,19.45
2017-01-25T01:53:22.383Z,19.45
2017-01-25T01:54:33.340Z,19.74
2017-01-25T01:55:43.653Z,19.84
2017-01-25T01:56:53.962Z,19.65
2017-01-25T01:58:04.666Z,19.74
2017-01-25T01:59:14.977Z,19.65
2017-01-25T02:00:25.192Z,19.74
2017-01-25T02:01:35.118Z,19.74
2017-01-25T02:02:45.818Z,19.55
2017-01-25T02:03:55.726Z,19.55
2017-01-25T02:05:04.839Z,19.74
2017-01-25T02:06:15.016Z,19.74
2017-01-25T02:07:25.329Z,19.55
2017-01-25T02:08:35.267Z,19.36
2017-01-25T02:09:45.578Z,19.55
2017-01-25T02:10:55.514Z,19.65
2017-01-25T02:12:06.121Z,19.55
2017-01-25T02:13:16.842Z,19.45
2017-01-25T02:14:27.140Z,19.36
2017-01-25T02:15:37.835Z,19.45
2017-01-25T02:16:47.341Z,19.74
2017-01-25T02:17:58.311Z,19.45
2017-01-25T02:19:08.626Z,19.84
2017-01-25T02:20:18.928Z,19.45
2017-01-25T02:21:29.230Z,19.55
2017-01-25T02:22:39.546Z,19.55
2017-01-25T02:23:49.757Z,19.93
2017-01-25T02:24:59.672Z,19.74
2017-01-25T02:26:10.384Z,19.84
2017-01-25T02:27:20.695Z,19.84
2017-01-25T02:28:30.650Z,19.55
2017-01-25T02:29:41.293Z,19.55
2017-01-25T02:30:51.995Z,19.84
2017-01-25T02:32:02.307Z,19.74
2017-01-25T02:33:13.018Z,19.45
2017-01-25T02:34:23.325Z,19.45
2017-01-25T02:35:33.875Z,19.45
2017-01-25T02:36:44.189Z,19.55
2017-01-25T02:37:54.943Z,19.55
2017-01-25T02:39:05.253Z,19.36
2017-01-25T02:40:15.561Z,19.45
2017-01-25T02:41:26.115Z,19.55
2017-01-25T02:42:36.874Z,19.74
2017-01-25T02:43:47.183Z,19.84
2017-01-25T02:44:57.088Z,19.65
2017-01-25T02:46:07.004Z,19.74
2017-01-25T02:47:17.168Z,19.45
2017-01-25T02:48:27.878Z,19.45
2017-01-25T02:49:38.570Z,19.65
2017-01-25T02:50:48.874Z,19.74
2017-01-25T02:51:59.176Z,19.55
2017-01-25T02:53:09.741Z,19.74
2017-01-25T02:54:20.678Z,19.84
2017-01-25T02:55:31.392Z,19.84
2017-01-25T02:56:41.703Z,19.65
2017-01-25T02:57:52.021Z,19.65
2017-01-25T02:59:02.979Z,19.74
2017-01-25T03:00:13.289Z,19.55
2017-01-25T03:01:23.991Z,19.55
2017-01-25T03:02:33.905Z,19.65
2017-01-25T03:03:44.215Z,19.74
2017-01-25T03:04:55.230Z,19.74
2017-01-25T03:06:05.534Z,19.74
2017-01-25T03:07:15.869Z,19.84
2017-01-25T03:08:26.576Z,19.74
2017-01-25T03:09:36.488Z,19.65
2017-01-25T03:10:46.656Z,19.74
2017-01-25T03:11:56.561Z,19.65
2017-01-25T03:13:06.874Z,19.65
2017-01-25T03:14:17.213Z,19.65
2017-01-25T03:15:27.904Z,19.74
2017-01-25T03:16:38.119Z,19.65
2017-01-25T03:17:48.424Z,19.55
2017-01-25T03:18:58.736Z,19.65
2017-01-25T03:20:09.050Z,19.84
2017-01-25T03:21:19.371Z,19.84
2017-01-25T03:22:30.378Z,19.65
2017-01-25T03:23:40.690Z,19.74
2017-01-25T03:24:50.993Z,19.84
2017-01-25T03:26:00.912Z,19.65
2017-01-25T03:27:11.628Z,19.65
2017-01-25T03:28:22.584Z,19.65
2017-01-25T03:29:33.350Z,19.74
2017-01-25T03:30:44.052Z,19.65
2017-01-25T03:31:53.962Z,19.65
2017-01-25T03:33:04.692Z,19.74
2017-01-25T03:34:15.249Z,19.84
2017-01-25T03:35:25.983Z,19.65
2017-01-25T03:36:36.688Z,19.55
2017-01-25T03:37:46.995Z,19.65
2017-01-25T03:38:57.700Z,19.74
2017-01-25T03:40:08.270Z,19.65
2017-01-25T03:41:18.186Z,19.74
2017-01-25T03:42:28.513Z,19.74
2017-01-25T03:43:39.206Z,19.55
2017-01-25T03:44:49.914Z,19.55
2017-01-25T03:46:00.199Z,19.55
2017-01-25T03:47:10.556Z,19.84
2017-01-25T03:48:20.870Z,19.74
2017-01-25T03:49:31.178Z,19.74
2017-01-25T03:50:41.504Z,19.74
2017-01-25T03:51:52.125Z,19.65
2017-01-25T03:53:02.420Z,19.55
2017-01-25T03:54:13.126Z,19.74
2017-01-25T03:55:23.034Z,19.45
2017-01-25T03:56:33.778Z,19.65
2017-01-25T03:57:44.732Z,19.65
2017-01-25T03:58:54.637Z,19.74
2017-01-25T04:00:04.548Z,19.84
2017-01-25T04:01:14.469Z,19.65
2017-01-25T04:02:24.790Z,19.65
2017-01-25T04:03:35.769Z,19.84
2017-01-25T04:04:45.686Z,19.74
2017-01-25T04:05:55.997Z,19.74
2017-01-25T04:07:06.685Z,19.55
2017-01-25T04:08:17.012Z,19.55
2017-01-25T04:09:28.193Z,19.65
2017-01-25T04:10:38.106Z,19.65
2017-01-25T04:11:48.406Z,19.74
2017-01-25T04:12:57.926Z,19.65
2017-01-25T04:14:08.637Z,19.55
2017-01-25T04:15:19.635Z,19.65
2017-01-25T04:16:29.560Z,19.74
2017-01-25T04:17:39.877Z,19.55
2017-01-25T04:18:50.182Z,19.65
2017-01-25T04:20:00.489Z,19.55
2017-01-25T04:21:11.438Z,19.55
2017-01-25T04:22:20.966Z,19.55
2017-01-25T04:23:31.903Z,19.55
2017-01-25T04:24:41.807Z,19.65
2017-01-25T04:25:51.726Z,19.74
2017-01-25T04:27:02.727Z,19.55
2017-01-25T04:28:13.039Z,19.55
2017-01-25T04:29:23.347Z,19.74
2017-01-25T04:30:33.673Z,19.74
2017-01-25T04:31:44.371Z,19.65
2017-01-25T04:32:55.314Z,19.65
2017-01-25T04:34:06.022Z,19.65
2017-01-25T04:35:15.942Z,19.65
2017-01-25T04:36:26.249Z,19.65
2017-01-25T04:37:36.559Z,19.74
2017-01-25T04:38:47.168Z,19.65
2017-01-25T04:39:57.878Z,19.55
2017-01-25T04:41:08.195Z,19.65
2017-01-25T04:42:18.933Z,19.74
2017-01-25T04:43:28.454Z,19.84
2017-01-25T04:44:39.023Z,19.65
2017-01-25T04:45:49.322Z,19.65
2017-01-25T04:46:59.628Z,19.55
2017-01-25T04:48:09.942Z,19.74
2017-01-25T04:49:19.874Z,19.65
2017-01-25T04:50:30.444Z,19.55
2017-01-25T04:51:39.961Z,19.65
2017-01-25T04:52:49.865Z,19.65
2017-01-25T04:54:00.222Z,19.74
2017-01-25T04:55:10.532Z,19.84
2017-01-25T04:56:21.488Z,19.74
2017-01-25T04:57:31.394Z,19.65
2017-01-25T04:58:42.553Z,19.55
2017-01-25T04:59:52.461Z,19.36
2017-01-25T05:01:02.761Z,19.36
2017-01-25T05:02:12.579Z,19.45
2017-01-25T05:03:22.889Z,19.36
2017-01-25T05:04:31.622Z,19.45
2017-01-25T05:05:42.322Z,19.55
2017-01-25T05:06:52.629Z,19.45
2017-01-25T05:08:02.793Z,19.55
2017-01-25T05:09:12.710Z,19.55
2017-01-25T05:10:23.017Z,19.55
2017-01-25T05:11:33.324Z,19.84
2017-01-25T05:12:44.034Z,19.74
2017-01-25T05:13:54.306Z,19.74
2017-01-25T05:15:04.617Z,19.74
2017-01-25T05:16:14.543Z,19.65
2017-01-25T05:17:24.454Z,19.65
2017-01-25T05:18:34.797Z,19.65
2017-01-25T05:19:45.383Z,19.65
2017-01-25T05:20:56.091Z,19.55
2017-01-25T05:22:06.796Z,19.84
2017-01-25T05:23:16.316Z,19.65
2017-01-25T05:24:26.652Z,19.65
2017-01-25T05:25:36.428Z,19.65
2017-01-25T05:26:46.739Z,19.74
2017-01-25T05:27:56.252Z,19.74
2017-01-25T05:29:06.163Z,19.74
2017-01-25T05:30:16.476Z,19.65
2017-01-25T05:31:26.246Z,19.65
2017-01-25T05:32:36.182Z,19.65
2017-01-25T05:33:46.492Z,19.65
2017-01-25T05:34:56.811Z,19.55
2017-01-25T05:36:07.528Z,19.55
2017-01-25T05:37:17.318Z,19.55
2017-01-25T05:38:27.633Z,19.74
2017-01-25T05:39:37.953Z,19.55
2017-01-25T05:40:47.864Z,19.55
2017-01-25T05:41:58.558Z,19.84
2017-01-25T05:43:08.721Z,19.55
2017-01-25T05:44:19.435Z,19.74
2017-01-25T05:45:29.745Z,19.74
2017-01-25T05:46:40.059Z,19.65
2017-01-25T05:47:50.762Z,19.55
2017-01-25T05:49:00.927Z,19.65
2017-01-25T05:50:11.239Z,19.54
2017-01-25T05:51:21.559Z,19.74
2017-01-25T05:52:31.076Z,19.55
2017-01-25T05:53:41.777Z,19.84
2017-01-25T05:54:52.398Z,19.74
2017-01-25T05:56:02.736Z,19.55
2017-01-25T05:57:13.063Z,19.65
2017-01-25T05:58:23.754Z,19.55
2017-01-25T05:59:34.071Z,19.55
2017-01-25T06:00:44.685Z,19.45
2017-01-25T06:01:54.219Z,19.36
2017-01-25T06:03:03.736Z,19.45
2017-01-25T06:04:14.036Z,19.45
2017-01-25T06:05:23.956Z,19.55
2017-01-25T06:06:34.507Z,19.74
2017-01-25T06:07:44.821Z,19.65
2017-01-25T06:08:55.130Z,19.45
2017-01-25T06:10:05.835Z,19.36
2017-01-25T06:11:16.167Z,19.45
2017-01-25T06:12:26.330Z,19.55
2017-01-25T06:13:36.675Z,19.55
2017-01-25T06:14:45.800Z,19.36
2017-01-25T06:15:56.113Z,19.26
2017-01-25T06:17:06.820Z,19.26
2017-01-25T06:18:17.783Z,19.36
2017-01-25T06:19:27.684Z,19.36
2017-01-25T06:20:38.392Z,19.45
2017-01-25T06:21:49.114Z,19.36
2017-01-25T06:22:59.825Z,19.26
2017-01-25T06:24:10.414Z,19.36
2017-01-25T06:25:19.947Z,19.26
2017-01-25T06:26:30.708Z,19.26
2017-01-25T06:27:41.028Z,19.17
2017-01-25T06:28:51.736Z,19.36
2017-01-25T06:30:01.909Z,19.26
2017-01-25T06:31:12.257Z,19.45
2017-01-25T06:32:22.990Z,19.36
2017-01-25T06:33:33.691Z,19.26
2017-01-25T06:34:44.008Z,19.07
2017-01-25T06:35:53.782Z,19.07
2017-01-25T06:37:04.093Z,18.88
2017-01-25T06:38:14.785Z,19.07
2017-01-25T06:39:25.505Z,19.07
2017-01-25T06:40:35.809Z,19.17
2017-01-25T06:41:46.033Z,19.26
2017-01-25T06:42:56.791Z,19.07
2017-01-25T06:44:07.505Z,19.17
2017-01-25T06:45:17.815Z,19.26
2017-01-25T06:46:28.126Z,19.26
2017-01-25T06:47:38.753Z,19.17
2017-01-25T06:48:49.054Z,19.26
2017-01-25T06:49:58.965Z,18.98
2017-01-25T06:51:09.692Z,18.98
2017-01-25T06:52:19.606Z,19.26
2017-01-25T06:53:29.837Z,19.17
2017-01-25T06:54:40.568Z,19.07
2017-01-25T06:55:50.511Z,19.17
2017-01-25T06:57:01.219Z,19.07
2017-01-25T06:58:11.562Z,19.07
2017-01-25T06:59:22.589Z,19.07
2017-01-25T07:00:33.297Z,19.17
2017-01-25T07:01:43.621Z,19.07
2017-01-25T07:02:54.328Z,19.07
2017-01-25T07:04:05.033Z,19.07
2017-01-25T07:05:15.249Z,19.26
2017-01-25T07:06:25.570Z,19.26
2017-01-25T07:07:36.273Z,19.07
2017-01-25T07:08:46.180Z,19.07
2017-01-25T07:09:56.494Z,19.17
2017-01-25T07:11:07.127Z,19.26
2017-01-25T07:12:17.048Z,19.36
2017-01-25T07:13:26.209Z,19.26
2017-01-25T07:14:36.926Z,19.17
2017-01-25T07:15:46.855Z,18.88
2017-01-25T07:16:57.076Z,19.17
2017-01-25T07:18:07.823Z,18.98
2017-01-25T07:19:18.174Z,19.17
2017-01-25T07:20:28.920Z,19.17
2017-01-25T07:21:39.699Z,19.17
2017-01-25T07:22:50.716Z,19.36
2017-01-25T07:24:00.747Z,19.36
2017-01-25T07:25:11.100Z,19.36
2017-01-25T07:26:21.857Z,19.26
2017-01-25T07:27:32.626Z,19.17
2017-01-25T07:28:42.811Z,19.07
2017-01-25T07:29:53.127Z,19.36
2017-01-25T07:31:03.445Z,19.36
2017-01-25T07:32:13.407Z,19.36
2017-01-25T07:33:23.350Z,19.36
2017-01-25T07:34:33.928Z,19.36
2017-01-25T07:35:44.293Z,19.45
2017-01-25T07:36:55.202Z,19.36
2017-01-25T07:38:05.542Z,19.55
2017-01-25T07:39:16.277Z,19.26
2017-01-25T07:40:27.237Z,19.45
2017-01-25T07:41:37.558Z,19.26
2017-01-25T07:42:47.896Z,19.07
2017-01-25T07:43:58.789Z,19.17
2017-01-25T07:45:09.151Z,19.36
2017-01-25T07:46:20.222Z,19.45
2017-01-25T07:47:31.000Z,19.17
2017-01-25T07:48:41.354Z,19.17
2017-01-25T07:49:51.743Z,19.17
2017-01-25T07:51:02.484Z,19.17
2017-01-25T07:52:13.496Z,18.98
2017-01-25T07:53:24.224Z,19.55
2017-01-25T07:54:34.163Z,19.17
2017-01-25T07:55:44.492Z,19.07
2017-01-25T07:56:54.037Z,19.55
2017-01-25T07:58:04.664Z,19.17
2017-01-25T07:59:15.417Z,19.36
2017-01-25T08:00:26.219Z,19.36
2017-01-25T08:01:36.933Z,19.26
2017-01-25T08:02:46.897Z,19.26
2017-01-25T08:03:57.545Z,19.07
2017-01-25T08:05:08.280Z,19.26
2017-01-25T08:06:18.197Z,19.45
2017-01-25T08:07:28.939Z,19.26
2017-01-25T08:08:39.692Z,19.36
2017-01-25T08:09:50.340Z,19.36
2017-01-25T08:11:00.285Z,19.36
2017-01-25T08:12:11.018Z,19.36
2017-01-25T08:13:21.354Z,19.45
2017-01-25T08:14:31.689Z,19.17
2017-01-25T08:15:42.286Z,19.55
2017-01-25T08:16:52.612Z,19.65
2017-01-25T08:18:03.368Z,19.26
2017-01-25T08:19:13.299Z,19.45
2017-01-25T08:20:24.077Z,19.17
2017-01-25T08:21:34.709Z,19.36
2017-01-25T08:22:44.240Z,19.36
2017-01-25T08:23:54.577Z,19.36
2017-01-25T08:25:03.719Z,19.45
2017-01-25T08:26:14.529Z,19.26
2017-01-25T08:27:24.308Z,19.17
2017-01-25T08:28:35.034Z,19.36
2017-01-25T08:29:45.831Z,19.36
2017-01-25T08:30:56.582Z,19.45
2017-01-25T08:32:07.295Z,19.17
2017-01-25T08:33:17.102Z,19.26
2017-01-25T08:34:27.854Z,19.26
2017-01-25T08:35:38.731Z,19.26
2017-01-25T08:36:49.119Z,19.36
2017-01-25T08:37:59.439Z,19.26
2017-01-25T08:39:10.023Z,19.36
2017-01-25T08:40:19.955Z,19.55
2017-01-25T08:41:30.700Z,19.36
2017-01-25T08:42:41.411Z,19.55
2017-01-25T08:43:51.735Z,19.26
2017-01-25T08:45:02.756Z,19.36
2017-01-25T08:46:13.075Z,19.65
2017-01-25T08:47:23.800Z,19.36
2017-01-25T08:48:34.118Z,19.65
2017-01-25T08:49:44.450Z,19.37
2017-01-25T08:50:55.104Z,19.55
2017-01-25T08:52:05.462Z,19.75
2017-01-25T08:53:16.212Z,19.27
2017-01-25T08:54:26.547Z,19.27
2017-01-25T08:55:36.485Z,19.45
2017-01-25T08:56:47.119Z,19.27
2017-01-25T08:57:57.466Z,19.45
2017-01-25T08:59:07.372Z,19.18
2017-01-25T09:00:17.690Z,19.37
2017-01-25T09:01:27.634Z,19.37
2017-01-25T09:02:37.568Z,19.37
2017-01-25T09:03:47.901Z,19.65
2017-01-25T09:04:58.650Z,19.45
2017-01-25T09:06:08.592Z,19.46
2017-01-25T09:07:19.225Z,19.17
2017-01-25T09:08:29.549Z,19.27
2017-01-25T09:09:39.877Z,19.27
2017-01-25T09:10:50.231Z,19.37
2017-01-25T09:12:00.153Z,19.37
2017-01-25T09:13:10.336Z,19.37
2017-01-25T09:14:20.658Z,19.37
2017-01-25T09:15:31.370Z,19.18
2017-01-25T09:16:42.097Z,19.37
2017-01-25T09:17:52.061Z,19.37
2017-01-25T09:19:02.019Z,19.37
2017-01-25T09:20:12.760Z,19.37
2017-01-25T09:21:23.507Z,19.37
2017-01-25T09:22:33.842Z,19.27
2017-01-25T09:23:44.404Z,19.37
2017-01-25T09:24:54.713Z,19.56
2017-01-25T09:26:04.304Z,19.08
2017-01-25T09:27:15.024Z,19.46
2017-01-25T09:28:25.337Z,19.37
2017-01-25T09:29:35.930Z,19.46
2017-01-25T09:30:45.843Z,19.46
2017-01-25T09:31:56.180Z,19.56
2017-01-25T09:33:06.895Z,19.56
2017-01-25T09:34:17.219Z,19.37
2017-01-25T09:35:27.415Z,19.56
2017-01-25T09:36:37.748Z,19.37
2017-01-25T09:37:47.284Z,19.46
2017-01-25T09:38:57.214Z,19.56
2017-01-25T09:40:07.944Z,19.37
2017-01-25T09:41:18.514Z,19.37
2017-01-25T09:42:28.848Z,19.46
2017-01-25T09:43:39.180Z,19.46
2017-01-25T09:44:49.966Z,19.46
2017-01-25T09:46:00.433Z,19.85
2017-01-25T09:47:10.608Z,19.56
2017-01-25T09:48:20.541Z,19.75
2017-01-25T09:49:31.258Z,19.56
2017-01-25T09:50:40.792Z,19.75
2017-01-25T09:51:51.494Z,19.65
2017-01-25T09:53:02.113Z,19.75
2017-01-25T09:54:12.433Z,19.65
2017-01-25T09:55:22.361Z,19.85
2017-01-25T09:56:32.916Z,19.56
2017-01-25T09:57:43.252Z,19.65
2017-01-25T09:58:53.574Z,19.65
2017-01-25T10:00:03.121Z,19.85
2017-01-25T10:01:13.857Z,19.75
2017-01-25T10:02:23.802Z,19.75
2017-01-25T10:03:33.993Z,19.65
2017-01-25T10:04:44.344Z,19.75
2017-01-25T10:05:54.657Z,19.65
2017-01-25T10:07:04.993Z,19.65
2017-01-25T10:08:15.313Z,19.46
2017-01-25T10:09:25.558Z,19.65
2017-01-25T10:10:35.508Z,19.56
2017-01-25T10:11:45.838Z,19.46
2017-01-25T10:12:55.362Z,19.56
2017-01-25T10:14:05.697Z,19.46
2017-01-25T10:15:16.669Z,19.56
2017-01-25T10:16:26.997Z,19.75
2017-01-25T10:17:37.322Z,19.56
2017-01-25T10:18:48.048Z,19.56
2017-01-25T10:19:57.179Z,19.56
2017-01-25T10:21:07.799Z,19.65
2017-01-25T10:22:18.526Z,19.65
2017-01-25T10:23:28.452Z,19.56
2017-01-25T10:24:38.792Z,20.14
2017-01-25T10:25:49.111Z,20.14
2017-01-25T10:26:59.728Z,20.34
2017-01-25T10:28:09.665Z,20.04
2017-01-25T10:29:20.378Z,20.05
2017-01-25T10:30:30.698Z,20.14
2017-01-25T10:31:41.005Z,20.24
2017-01-25T10:32:51.550Z,20.34
2017-01-25T10:34:02.251Z,20.43
2017-01-25T10:35:12.958Z,20.34
2017-01-25T10:36:23.271Z,20.24
2017-01-25T10:37:33.629Z,20.43
2017-01-25T10:38:43.801Z,20.72
2017-01-25T10:39:54.343Z,20.34
2017-01-25T10:41:05.083Z,20.43
2017-01-25T10:42:15.015Z,20.53
2017-01-25T10:43:24.946Z,20.34
2017-01-25T10:44:35.513Z,20.24
2017-01-25T10:45:45.459Z,20.34
2017-01-25T10:46:55.773Z,20.24
2017-01-25T10:48:06.097Z,20.43
2017-01-25T10:49:16.835Z,20.14
2017-01-25T10:50:26.682Z,20.34
2017-01-25T10:51:37.404Z,20.34
2017-01-25T10:52:47.715Z,20.34
2017-01-25T10:53:57.636Z,20.43
2017-01-25T10:55:08.352Z,20.14
2017-01-25T10:56:19.309Z,20.05
2017-01-25T10:57:30.028Z,19.95
2017-01-25T10:58:40.770Z,20.05
2017-01-25T10:59:51.727Z,19.95
2017-01-25T11:01:02.076Z,19.95
2017-01-25T11:02:12.663Z,19.67
2017-01-25T11:03:23.395Z,19.76
2017-01-25T11:04:33.721Z,19.76
2017-01-25T11:05:44.044Z,19.76
2017-01-25T11:06:53.965Z,19.67
2017-01-25T11:08:04.940Z,19.85
2017-01-25T11:09:15.254Z,19.57
2017-01-25T11:10:25.958Z,19.57
2017-01-25T11:11:36.292Z,19.67
2017-01-25T11:12:47.010Z,19.76
2017-01-25T11:13:57.959Z,19.57
2017-01-25T11:15:08.668Z,19.67
2017-01-25T11:16:18.598Z,19.76
2017-01-25T11:17:28.530Z,19.57
2017-01-25T11:18:39.241Z,19.47
2017-01-25T11:19:49.808Z,19.38
2017-01-25T11:21:00.525Z,19.47
2017-01-25T11:22:10.838Z,19.47
2017-01-25T11:23:20.762Z,19.57
2017-01-25T11:24:31.096Z,19.38
2017-01-25T11:25:41.670Z,19.47
2017-01-25T11:26:51.996Z,19.47
2017-01-25T11:28:02.325Z,19.38
2017-01-25T11:29:12.656Z,19.38
2017-01-25T11:30:23.379Z,19.28
2017-01-25T11:31:33.144Z,19.18
2017-01-25T11:32:43.866Z,19.28
2017-01-25T11:33:54.191Z,19.28
2017-01-25T11:35:04.896Z,19.47
2017-01-25T11:36:15.254Z,19.47
2017-01-25T11:37:25.024Z,19.38
2017-01-25T11:38:35.733Z,19.28
2017-01-25T11:39:46.070Z,19.47
2017-01-25T11:40:56.377Z,19.38
2017-01-25T11:42:07.087Z,19.67
2017-01-25T11:43:18.075Z,19.47
2017-01-25T11:44:28.009Z,19.38
2017-01-25T11:45:37.937Z,19.57
2017-01-25T11:46:48.265Z,19.47
2017-01-25T11:47:59.044Z,18.9
2017-01-25T11:49:10.100Z,19.38
2017-01-25T11:50:20.064Z,19.09
2017-01-25T11:51:30.838Z,19.28
2017-01-25T11:52:40.805Z,19.18
2017-01-25T11:53:50.760Z,19.18
2017-01-25T11:55:01.336Z,19.18
2017-01-25T11:56:12.066Z,19.38
2017-01-25T11:57:22.784Z,19.18
2017-01-25T11:58:33.119Z,19.28
2017-01-25T11:59:42.652Z,19.28
2017-01-25T12:00:53.627Z,18.99
2017-01-25T12:02:03.562Z,18.99
2017-01-25T12:03:13.489Z,18.99
2017-01-25T12:04:23.798Z,19.38
2017-01-25T12:05:34.527Z,19.09
2017-01-25T12:06:45.110Z,19.18
2017-01-25T12:07:55.041Z,19.09
2017-01-25T12:09:05.759Z,19.18
2017-01-25T12:10:15.698Z,19.18
2017-01-25T12:11:25.637Z,19.28
2017-01-25T12:12:36.654Z,19.18
2017-01-25T12:13:46.987Z,18.9
2017-01-25T12:14:57.713Z,19.28
2017-01-25T12:16:08.443Z,19.28
2017-01-25T12:17:19.158Z,19.47
2017-01-25T12:18:29.365Z,19.38
2017-01-25T12:19:39.697Z,19.38
2017-01-25T12:20:50.430Z,19.47
2017-01-25T12:22:00.399Z,19.28
2017-01-25T12:23:10.762Z,19.38
2017-01-25T12:24:21.351Z,19.28
2017-01-25T12:25:32.120Z,19.47
2017-01-25T12:26:41.648Z,19.18
2017-01-25T12:27:51.977Z,19.47
2017-01-25T12:29:02.928Z,19.38
2017-01-25T12:30:13.936Z,19.47
2017-01-25T12:31:24.274Z,19.47
2017-01-25T12:32:34.213Z,19.18
2017-01-25T12:33:44.934Z,19.47
2017-01-25T12:34:54.890Z,19.28
2017-01-25T12:36:05.520Z,19.38
2017-01-25T12:37:15.482Z,19.18
2017-01-25T12:38:26.196Z,19.18
2017-01-25T12:39:36.516Z,19.28
2017-01-25T12:40:46.433Z,19.57
2017-01-25T12:41:57.404Z,19.57
2017-01-25T12:43:08.126Z,19.47
2017-01-25T12:44:18.057Z,19.76
2017-01-25T12:45:27.988Z,19.76
2017-01-25T12:46:38.716Z,19.57
2017-01-25T12:47:49.730Z,19.67
2017-01-25T12:49:00.063Z,19.76
2017-01-25T12:50:10.784Z,19.76
2017-01-25T12:51:21.520Z,19.67
2017-01-25T12:52:31.460Z,19.67
2017-01-25T12:53:42.061Z,19.76
2017-01-25T12:54:52.427Z,19.76
2017-01-25T12:56:02.332Z,19.85
2017-01-25T12:57:12.643Z,19.67
2017-01-25T12:58:22.970Z,19.76
2017-01-25T12:59:33.991Z,19.76
2017-01-25T13:00:43.907Z,19.57
2017-01-25T13:01:54.235Z,19.47
2017-01-25T13:03:04.600Z,19.67
2017-01-25T13:04:14.915Z,19.76
2017-01-25T13:05:25.535Z,19.67
2017-01-25T13:06:36.246Z,20.05
2017-01-25T13:07:46.971Z,19.67
2017-01-25T13:08:57.681Z,19.85
2017-01-25T13:10:07.610Z,19.57
2017-01-25T13:11:18.218Z,19.76
2017-01-25T13:12:28.516Z,19.76
2017-01-25T13:13:38.835Z,19.76
2017-01-25T13:14:49.564Z,19.85
2017-01-25T13:16:00.297Z,19.76
2017-01-25T13:17:11.304Z,19.57
2017-01-25T13:18:22.025Z,19.95
2017-01-25T13:19:32.755Z,19.85
2017-01-25T13:20:43.509Z,19.76
2017-01-25T13:21:53.818Z,19.57
2017-01-25T13:23:04.804Z,20.05
2017-01-25T13:24:15.533Z,19.67
2017-01-25T13:25:25.847Z,19.67
2017-01-25T13:26:36.596Z,20.05
2017-01-25T13:27:46.909Z,20.05
2017-01-25T13:28:57.487Z,19.95
2017-01-25T13:30:07.807Z,20.05
2017-01-25T13:31:18.119Z,19.95
2017-01-25T13:32:28.458Z,19.67
2017-01-25T13:33:38.388Z,19.85
2017-01-25T13:34:47.764Z,20.05
2017-01-25T13:35:58.482Z,20.05
2017-01-25T13:37:09.235Z,19.94
2017-01-25T13:38:19.158Z,20.05
2017-01-25T13:39:29.467Z,19.95
2017-01-25T13:40:40.180Z,20.14
2017-01-25T13:41:50.507Z,20.14
2017-01-25T13:43:00.833Z,19.85
2017-01-25T13:44:10.874Z,20.05
2017-01-25T13:45:21.212Z,19.67
2017-01-25T13:46:32.238Z,19.57
2017-01-25T13:47:42.553Z,19.76
2017-01-25T13:48:52.876Z,19.67
2017-01-25T13:50:02.851Z,19.76
2017-01-25T13:51:12.801Z,19.75
2017-01-25T13:52:23.429Z,19.57
2017-01-25T13:53:33.759Z,19.85
2017-01-25T13:54:44.504Z,19.67
2017-01-25T13:55:54.829Z,19.47
2017-01-25T13:57:05.142Z,19.57
2017-01-25T13:58:16.176Z,19.57
2017-01-25T13:59:26.496Z,19.57
2017-01-25T14:00:36.818Z,19.65
2017-01-25T14:01:47.128Z,19.38
2017-01-25T14:02:57.841Z,19.28
2017-01-25T14:04:08.463Z,19.38
2017-01-25T14:05:19.170Z,19.28
2017-01-25T14:06:29.094Z,19.28
2017-01-25T14:07:39.040Z,19.18
2017-01-25T14:08:49.359Z,19.18
2017-01-25T14:09:59.579Z,19.18
2017-01-25T14:11:10.305Z,19.18
2017-01-25T14:12:20.618Z,19.09
2017-01-25T14:13:30.954Z,19.28
2017-01-25T14:14:40.908Z,19.28
2017-01-25T14:15:51.917Z,19.38
2017-01-25T14:17:02.234Z,19.57
2017-01-25T14:18:12.570Z,19.38
2017-01-25T14:19:23.295Z,19.18
2017-01-25T14:20:34.007Z,19.18
2017-01-25T14:21:45.021Z,19.18
2017-01-25T14:22:55.339Z,18.99
2017-01-25T14:24:06.101Z,18.99
2017-01-25T14:25:16.449Z,19.28
2017-01-25T14:26:25.975Z,19.18
2017-01-25T14:27:36.151Z,19.09
2017-01-25T14:28:46.485Z,19.09
2017-01-25T14:29:56.817Z,19.09
2017-01-25T14:31:07.563Z,18.99
2017-01-25T14:32:17.922Z,18.99
2017-01-25T14:33:28.904Z,18.71
2017-01-25T14:34:39.214Z,19.09
2017-01-25T14:35:48.737Z,19.09
2017-01-25T14:36:59.463Z,18.99
2017-01-25T14:38:10.168Z,19.09
2017-01-25T14:39:19.985Z,19.09
2017-01-25T14:40:30.680Z,18.9
2017-01-25T14:41:40.988Z,18.71
2017-01-25T14:42:50.488Z,19.09
2017-01-25T14:44:00.795Z,18.99
2017-01-25T14:45:11.724Z,19.09
2017-01-25T14:46:20.443Z,19.09
2017-01-25T14:47:30.729Z,18.99
2017-01-25T14:48:40.633Z,18.9
2017-01-25T14:49:50.149Z,18.9
2017-01-25T14:51:01.136Z,18.8
2017-01-25T14:52:11.048Z,18.8
2017-01-25T14:53:20.983Z,18.8
2017-01-25T14:54:31.300Z,18.9
2017-01-25T14:55:41.269Z,18.9
2017-01-25T14:56:51.845Z,18.9
2017-01-25T14:58:02.155Z,18.9
2017-01-25T14:59:12.456Z,18.9
2017-01-25T15:00:23.167Z,18.8
2017-01-25T15:01:33.462Z,18.9
2017-01-25T15:02:44.017Z,19.18
2017-01-25T15:03:54.308Z,19.09
2017-01-25T15:05:04.624Z,18.99
2017-01-25T15:06:14.130Z,19.09
2017-01-25T15:07:24.032Z,19.18